sensor_id;sensor_type;location;lat;lon;timestamp;pressure;altitude;pressure_sealevel;temperature;humidity
10079;BME280;5078;42.544;22.966;2022-10-04T00:00:59;94154.16;;;9.35;100.00
10079;BME280;5078;42.544;22.966;2022-10-04T00:03:32;94154.19;;;9.43;100.00
10079;BME280;5078;42.544;22.966;2022-10-04T00:06:00;94129.00;;;9.31;100.00
10079;BME280;5078;42.544;22.966;2022-10-04T00:08:34;94159.88;;;9.56;100.00
10079;BME280;5078;42.544;22.966;2022-10-04T00:11:05;94155.06;;;9.60;100.00
10079;BME280;5078;42.544;22.966;2022-10-04T00:13:35;94156.06;;;9.75;100.00
10079;BME280;5078;42.544;22.966;2022-10-04T00:16:02;94165.19;;;9.72;100.00
10079;BME280;5078;42.544;22.966;2022-10-04T00:18:31;94151.44;;;9.77;100.00
10079;BME280;5078;42.544;22.966;2022-10-04T00:21:04;94141.88;;;9.76;100.00
10079;BME280;5078;42.544;22.966;2022-10-04T00:23:45;94150.97;;;9.98;100.00
10079;BME280;5078;42.544;22.966;2022-10-04T00:27:08;94149.66;;;9.94;100.00
10079;BME280;5078;42.544;22.966;2022-10-04T00:29:26;94147.47;;;10.06;100.00
10079;BME280;5078;42.544;22.966;2022-10-04T00:32:24;94148.16;;;10.08;100.00
10079;BME280;5078;42.544;22.966;2022-10-04T00:34:53;94142.50;;;9.70;100.00
10079;BME280;5078;42.544;22.966;2022-10-04T00:37:21;94146.63;;;9.64;100.00
10079;BME280;5078;42.544;22.966;2022-10-04T00:39:59;94155.72;;;9.54;100.00
10079;BME280;5078;42.544;22.966;2022-10-04T00:42:46;94140.53;;;9.64;100.00
10079;BME280;5078;42.544;22.966;2022-10-04T00:45:28;94145.66;;;9.82;100.00
10079;BME280;5078;42.544;22.966;2022-10-04T00:48:12;94141.34;;;9.81;100.00
10079;BME280;5078;42.544;22.966;2022-10-04T00:50:47;94144.66;;;9.83;100.00
10079;BME280;5078;42.544;22.966;2022-10-04T00:53:34;94142.19;;;9.89;100.00
10079;BME280;5078;42.544;22.966;2022-10-04T00:56:03;94142.94;;;9.41;100.00
10079;BME280;5078;42.544;22.966;2022-10-04T00:58:37;94137.09;;;9.21;100.00
10079;BME280;5078;42.544;22.966;2022-10-04T01:01:07;94118.47;;;8.88;100.00
10079;BME280;5078;42.544;22.966;2022-10-04T01:03:37;94135.09;;;9.15;100.00
10079;BME280;5078;42.544;22.966;2022-10-04T01:06:09;94125.19;;;9.17;100.00
10079;BME280;5078;42.544;22.966;2022-10-04T01:08:44;94139.13;;;8.93;100.00
10079;BME280;5078;42.544;22.966;2022-10-04T01:11:17;94131.06;;;8.94;100.00
10079;BME280;5078;42.544;22.966;2022-10-04T01:13:52;94132.31;;;8.82;100.00
10079;BME280;5078;42.544;22.966;2022-10-04T01:16:24;94126.91;;;8.92;100.00
10079;BME280;5078;42.544;22.966;2022-10-04T01:18:52;94134.50;;;8.87;100.00
10079;BME280;5078;42.544;22.966;2022-10-04T01:21:25;94134.06;;;9.07;100.00
10079;BME280;5078;42.544;22.966;2022-10-04T01:24:18;94124.38;;;9.16;100.00
10079;BME280;5078;42.544;22.966;2022-10-04T01:26:46;94129.66;;;9.16;100.00
10079;BME280;5078;42.544;22.966;2022-10-04T01:29:16;94130.69;;;9.40;100.00
10079;BME280;5078;42.544;22.966;2022-10-04T01:31:44;94130.97;;;9.20;100.00
10079;BME280;5078;42.544;22.966;2022-10-04T01:34:13;94139.09;;;9.19;100.00
10079;BME280;5078;42.544;22.966;2022-10-04T01:36:41;94140.25;;;9.24;100.00
10079;BME280;5078;42.544;22.966;2022-10-04T01:39:09;94140.41;;;9.23;100.00
10079;BME280;5078;42.544;22.966;2022-10-04T01:41:44;94144.94;;;9.39;100.00
10079;BME280;5078;42.544;22.966;2022-10-04T01:44:18;94146.84;;;9.20;100.00
10079;BME280;5078;42.544;22.966;2022-10-04T01:46:49;94098.88;;;9.07;100.00
10079;BME280;5078;42.544;22.966;2022-10-04T01:49:19;94130.88;;;9.46;100.00
10079;BME280;5078;42.544;22.966;2022-10-04T01:51:55;94124.31;;;9.08;100.00
10079;BME280;5078;42.544;22.966;2022-10-04T01:54:31;94125.72;;;9.28;100.00
10079;BME280;5078;42.544;22.966;2022-10-04T01:57:06;94127.50;;;9.12;100.00
10079;BME280;5078;42.544;22.966;2022-10-04T01:59:43;94127.84;;;9.17;100.00
10079;BME280;5078;42.544;22.966;2022-10-04T02:02:24;94130.28;;;9.18;100.00
10079;BME280;5078;42.544;22.966;2022-10-04T02:04:55;94132.25;;;9.08;100.00
10079;BME280;5078;42.544;22.966;2022-10-04T02:07:32;94122.72;;;9.23;100.00
10079;BME280;5078;42.544;22.966;2022-10-04T02:10:04;94106.94;;;9.05;100.00
10079;BME280;5078;42.544;22.966;2022-10-04T02:12:34;94102.81;;;9.03;100.00
10079;BME280;5078;42.544;22.966;2022-10-04T02:15:06;94126.38;;;9.31;100.00
10079;BME280;5078;42.544;22.966;2022-10-04T02:17:37;94125.34;;;9.23;100.00
10079;BME280;5078;42.544;22.966;2022-10-04T02:20:12;94120.25;;;9.22;100.00
10079;BME280;5078;42.544;22.966;2022-10-04T02:22:40;94111.41;;;9.05;100.00
10079;BME280;5078;42.544;22.966;2022-10-04T02:25:09;94114.78;;;9.23;100.00
10079;BME280;5078;42.544;22.966;2022-10-04T02:27:38;94128.16;;;8.71;100.00
10079;BME280;5078;42.544;22.966;2022-10-04T02:30:07;94119.47;;;8.61;100.00
10079;BME280;5078;42.544;22.966;2022-10-04T02:32:35;94127.38;;;8.79;100.00
10079;BME280;5078;42.544;22.966;2022-10-04T02:35:20;94129.34;;;8.77;100.00
10079;BME280;5078;42.544;22.966;2022-10-04T02:37:51;94127.25;;;8.89;100.00
10079;BME280;5078;42.544;22.966;2022-10-04T02:40:28;94119.69;;;9.02;100.00
10079;BME280;5078;42.544;22.966;2022-10-04T02:43:01;94122.66;;;8.99;100.00
10079;BME280;5078;42.544;22.966;2022-10-04T02:45:36;94131.44;;;9.07;100.00
10079;BME280;5078;42.544;22.966;2022-10-04T02:48:15;94134.84;;;8.57;100.00
10079;BME280;5078;42.544;22.966;2022-10-04T02:50:49;94140.94;;;8.58;100.00
10079;BME280;5078;42.544;22.966;2022-10-04T02:53:21;94143.81;;;8.64;100.00
10079;BME280;5078;42.544;22.966;2022-10-04T02:55:51;94143.44;;;8.59;100.00
10079;BME280;5078;42.544;22.966;2022-10-04T02:58:22;94156.09;;;8.74;100.00
10079;BME280;5078;42.544;22.966;2022-10-04T03:00:51;94150.72;;;8.66;100.00
10079;BME280;5078;42.544;22.966;2022-10-04T03:03:22;94149.75;;;8.67;100.00
10079;BME280;5078;42.544;22.966;2022-10-04T03:05:58;94153.69;;;8.89;100.00
10079;BME280;5078;42.544;22.966;2022-10-04T03:08:30;94161.38;;;8.74;100.00
10079;BME280;5078;42.544;22.966;2022-10-04T03:10:57;94158.72;;;8.48;100.00
10079;BME280;5078;42.544;22.966;2022-10-04T03:13:29;94152.09;;;7.99;100.00
10079;BME280;5078;42.544;22.966;2022-10-04T03:15:56;94166.94;;;8.00;100.00
10079;BME280;5078;42.544;22.966;2022-10-04T03:18:23;94165.81;;;7.85;100.00
10079;BME280;5078;42.544;22.966;2022-10-04T03:20:50;94167.25;;;7.97;100.00
10079;BME280;5078;42.544;22.966;2022-10-04T03:23:18;94166.72;;;8.12;100.00
10079;BME280;5078;42.544;22.966;2022-10-04T03:25:55;94170.72;;;7.62;100.00
10079;BME280;5078;42.544;22.966;2022-10-04T03:28:26;94172.59;;;7.34;100.00
10079;BME280;5078;42.544;22.966;2022-10-04T03:30:56;94172.31;;;7.55;100.00
10079;BME280;5078;42.544;22.966;2022-10-04T03:33:27;94173.19;;;7.64;100.00
10079;BME280;5078;42.544;22.966;2022-10-04T03:36:05;94173.84;;;7.30;100.00
10079;BME280;5078;42.544;22.966;2022-10-04T03:38:33;94165.75;;;7.13;100.00
10079;BME280;5078;42.544;22.966;2022-10-04T03:41:01;94179.06;;;7.22;100.00
10079;BME280;5078;42.544;22.966;2022-10-04T03:43:30;94174.63;;;7.40;100.00
10079;BME280;5078;42.544;22.966;2022-10-04T03:46:01;94178.09;;;7.13;100.00
10079;BME280;5078;42.544;22.966;2022-10-04T03:48:32;94172.88;;;7.31;100.00
10079;BME280;5078;42.544;22.966;2022-10-04T03:51:02;94182.53;;;7.40;100.00
10079;BME280;5078;42.544;22.966;2022-10-04T03:53:33;94182.25;;;7.61;100.00
10079;BME280;5078;42.544;22.966;2022-10-04T03:56:10;94190.16;;;7.61;100.00
10079;BME280;5078;42.544;22.966;2022-10-04T03:58:37;94184.50;;;7.10;100.00
10079;BME280;5078;42.544;22.966;2022-10-04T04:01:25;94192.25;;;7.22;100.00
10079;BME280;5078;42.544;22.966;2022-10-04T04:04:00;94198.72;;;7.27;100.00
10079;BME280;5078;42.544;22.966;2022-10-04T04:06:35;94195.66;;;7.50;100.00
10079;BME280;5078;42.544;22.966;2022-10-04T04:09:03;94195.59;;;7.60;100.00
10079;BME280;5078;42.544;22.966;2022-10-04T04:11:31;94197.03;;;7.54;100.00
10079;BME280;5078;42.544;22.966;2022-10-04T04:14:07;94195.22;;;7.54;100.00
10079;BME280;5078;42.544;22.966;2022-10-04T04:16:37;94187.69;;;7.14;100.00
10079;BME280;5078;42.544;22.966;2022-10-04T04:19:10;94195.72;;;7.40;100.00
10079;BME280;5078;42.544;22.966;2022-10-04T04:21:39;94192.81;;;7.16;100.00
10079;BME280;5078;42.544;22.966;2022-10-04T04:24:13;94202.25;;;7.36;100.00
10079;BME280;5078;42.544;22.966;2022-10-04T04:26:46;94188.81;;;7.39;100.00
10079;BME280;5078;42.544;22.966;2022-10-04T04:29:20;94201.75;;;7.32;100.00
10079;BME280;5078;42.544;22.966;2022-10-04T04:31:55;94176.25;;;7.23;100.00
10079;BME280;5078;42.544;22.966;2022-10-04T04:34:31;94190.84;;;7.45;100.00
10079;BME280;5078;42.544;22.966;2022-10-04T04:36:59;94190.00;;;6.99;100.00
10079;BME280;5078;42.544;22.966;2022-10-04T04:39:28;94188.59;;;6.67;100.00
10079;BME280;5078;42.544;22.966;2022-10-04T04:42:13;94189.47;;;6.86;100.00
10079;BME280;5078;42.544;22.966;2022-10-04T04:44:46;94194.13;;;7.02;100.00
10079;BME280;5078;42.544;22.966;2022-10-04T04:47:25;94198.63;;;6.91;100.00
10079;BME280;5078;42.544;22.966;2022-10-04T04:49:57;94204.03;;;6.90;100.00
10079;BME280;5078;42.544;22.966;2022-10-04T04:52:28;94203.81;;;7.01;100.00
10079;BME280;5078;42.544;22.966;2022-10-04T04:54:55;94207.28;;;7.11;100.00
10079;BME280;5078;42.544;22.966;2022-10-04T04:57:24;94210.13;;;7.18;100.00
10079;BME280;5078;42.544;22.966;2022-10-04T04:59:54;94208.59;;;7.25;100.00
10079;BME280;5078;42.544;22.966;2022-10-04T05:02:36;94210.66;;;7.31;100.00
10079;BME280;5078;42.544;22.966;2022-10-04T05:05:17;94206.75;;;7.26;100.00
10079;BME280;5078;42.544;22.966;2022-10-04T05:07:44;94207.53;;;7.36;100.00
10079;BME280;5078;42.544;22.966;2022-10-04T05:10:30;94204.19;;;7.16;100.00
10079;BME280;5078;42.544;22.966;2022-10-04T05:12:58;94223.53;;;7.34;100.00
10079;BME280;5078;42.544;22.966;2022-10-04T05:15:32;94218.59;;;6.94;100.00
10079;BME280;5078;42.544;22.966;2022-10-04T05:18:12;94227.38;;;7.12;100.00
10079;BME280;5078;42.544;22.966;2022-10-04T05:20:46;94215.00;;;7.41;100.00
10079;BME280;5078;42.544;22.966;2022-10-04T05:23:14;94232.63;;;7.68;100.00
10079;BME280;5078;42.544;22.966;2022-10-04T05:25:41;94232.19;;;8.26;100.00
10079;BME280;5078;42.544;22.966;2022-10-04T05:28:09;94243.88;;;8.59;100.00
10079;BME280;5078;42.544;22.966;2022-10-04T05:30:46;94247.38;;;9.20;100.00
10079;BME280;5078;42.544;22.966;2022-10-04T05:33:22;94241.00;;;9.74;100.00
10079;BME280;5078;42.544;22.966;2022-10-04T05:39:09;94257.97;;;10.13;100.00
10079;BME280;5078;42.544;22.966;2022-10-04T05:41:44;94260.00;;;10.52;100.00
10079;BME280;5078;42.544;22.966;2022-10-04T05:44:25;94261.50;;;10.55;100.00
10079;BME280;5078;42.544;22.966;2022-10-04T05:46:55;94254.34;;;10.55;100.00
10079;BME280;5078;42.544;22.966;2022-10-04T05:49:25;94266.13;;;10.53;100.00
10079;BME280;5078;42.544;22.966;2022-10-04T05:51:58;94267.63;;;10.47;100.00
10079;BME280;5078;42.544;22.966;2022-10-04T05:54:27;94271.75;;;10.50;100.00
10079;BME280;5078;42.544;22.966;2022-10-04T05:57:31;94273.56;;;10.33;100.00
10079;BME280;5078;42.544;22.966;2022-10-04T06:00:12;94277.38;;;10.30;100.00
10079;BME280;5078;42.544;22.966;2022-10-04T06:03:05;94277.47;;;10.21;100.00
10079;BME280;5078;42.544;22.966;2022-10-04T06:05:43;94276.41;;;10.40;100.00
10079;BME280;5078;42.544;22.966;2022-10-04T06:08:21;94282.84;;;10.29;100.00
10079;BME280;5078;42.544;22.966;2022-10-04T06:11:08;94279.19;;;9.28;100.00
10079;BME280;5078;42.544;22.966;2022-10-04T06:13:58;94259.53;;;9.31;100.00
10079;BME280;5078;42.544;22.966;2022-10-04T06:16:42;94286.50;;;9.77;100.00
10079;BME280;5078;42.544;22.966;2022-10-04T06:19:49;94284.84;;;10.35;100.00
10079;BME280;5078;42.544;22.966;2022-10-04T06:22:24;94280.22;;;10.62;100.00
10079;BME280;5078;42.544;22.966;2022-10-04T06:24:55;94285.44;;;10.12;100.00
10079;BME280;5078;42.544;22.966;2022-10-04T06:27:27;94293.38;;;10.12;100.00
10079;BME280;5078;42.544;22.966;2022-10-04T06:29:58;94292.75;;;10.27;100.00
10079;BME280;5078;42.544;22.966;2022-10-04T06:32:48;94302.75;;;10.49;100.00
10079;BME280;5078;42.544;22.966;2022-10-04T06:35:46;94300.25;;;10.48;100.00
10079;BME280;5078;42.544;22.966;2022-10-04T06:41:27;94297.38;;;10.17;100.00
10079;BME280;5078;42.544;22.966;2022-10-04T06:44:09;94311.81;;;10.30;100.00
10079;BME280;5078;42.544;22.966;2022-10-04T06:46:43;94316.34;;;10.46;100.00
10079;BME280;5078;42.544;22.966;2022-10-04T06:49:29;94320.44;;;10.41;100.00
10079;BME280;5078;42.544;22.966;2022-10-04T06:52:27;94324.63;;;10.60;100.00
10079;BME280;5078;42.544;22.966;2022-10-04T06:55:33;94320.66;;;10.80;100.00
10079;BME280;5078;42.544;22.966;2022-10-04T06:58:24;94320.00;;;10.62;100.00
10079;BME280;5078;42.544;22.966;2022-10-04T07:01:02;94321.31;;;10.41;100.00
10079;BME280;5078;42.544;22.966;2022-10-04T07:03:35;94322.94;;;10.42;100.00
10079;BME280;5078;42.544;22.966;2022-10-04T07:06:06;94325.44;;;10.60;100.00
10079;BME280;5078;42.544;22.966;2022-10-04T07:08:38;94328.09;;;10.44;100.00
10079;BME280;5078;42.544;22.966;2022-10-04T07:11:14;94324.28;;;10.54;100.00
10079;BME280;5078;42.544;22.966;2022-10-04T07:13:48;94327.44;;;10.50;100.00
10079;BME280;5078;42.544;22.966;2022-10-04T07:16:34;94327.63;;;10.65;100.00
10079;BME280;5078;42.544;22.966;2022-10-04T07:19:12;94330.94;;;10.58;100.00
10079;BME280;5078;42.544;22.966;2022-10-04T07:21:54;94331.09;;;10.65;100.00
10079;BME280;5078;42.544;22.966;2022-10-04T07:24:30;94340.22;;;10.71;100.00
10079;BME280;5078;42.544;22.966;2022-10-04T07:27:02;94330.44;;;10.71;100.00
10079;BME280;5078;42.544;22.966;2022-10-04T07:29:38;94334.78;;;10.89;100.00
10079;BME280;5078;42.544;22.966;2022-10-04T07:32:08;94338.88;;;11.08;100.00
10079;BME280;5078;42.544;22.966;2022-10-04T07:34:43;94336.59;;;10.96;100.00
10079;BME280;5078;42.544;22.966;2022-10-04T07:37:12;94343.38;;;10.83;100.00
10079;BME280;5078;42.544;22.966;2022-10-04T07:39:44;94335.75;;;11.12;100.00
10079;BME280;5078;42.544;22.966;2022-10-04T07:42:21;94340.50;;;11.50;100.00
10079;BME280;5078;42.544;22.966;2022-10-04T07:45:02;94334.78;;;11.77;100.00
10079;BME280;5078;42.544;22.966;2022-10-04T07:47:31;94343.09;;;11.74;100.00
10079;BME280;5078;42.544;22.966;2022-10-04T07:49:58;94328.47;;;11.86;100.00
10079;BME280;5078;42.544;22.966;2022-10-04T07:52:49;94346.25;;;12.17;100.00
10079;BME280;5078;42.544;22.966;2022-10-04T07:55:36;94349.22;;;12.30;100.00
10079;BME280;5078;42.544;22.966;2022-10-04T07:58:17;94342.06;;;11.92;100.00
10079;BME280;5078;42.544;22.966;2022-10-04T08:00:51;94344.63;;;12.16;100.00
10079;BME280;5078;42.544;22.966;2022-10-04T08:03:39;94346.41;;;12.24;100.00
10079;BME280;5078;42.544;22.966;2022-10-04T08:06:12;94343.84;;;12.39;99.42
10079;BME280;5078;42.544;22.966;2022-10-04T08:11:49;94354.63;;;12.37;98.90
10079;BME280;5078;42.544;22.966;2022-10-04T08:14:45;94351.81;;;12.39;99.80
10079;BME280;5078;42.544;22.966;2022-10-04T08:17:32;94346.19;;;12.34;92.18
10079;BME280;5078;42.544;22.966;2022-10-04T08:20:31;94350.91;;;12.23;87.93
10079;BME280;5078;42.544;22.966;2022-10-04T08:23:13;94347.66;;;12.05;85.86
10079;BME280;5078;42.544;22.966;2022-10-04T08:25:48;94351.84;;;11.99;87.24
10079;BME280;5078;42.544;22.966;2022-10-04T08:28:31;94355.88;;;12.26;84.83
10079;BME280;5078;42.544;22.966;2022-10-04T08:31:26;94358.66;;;12.33;83.02
10079;BME280;5078;42.544;22.966;2022-10-04T08:34:04;94354.91;;;12.19;81.15
10079;BME280;5078;42.544;22.966;2022-10-04T08:36:44;94352.50;;;12.33;82.21
10079;BME280;5078;42.544;22.966;2022-10-04T08:39:26;94355.91;;;12.72;81.26
10079;BME280;5078;42.544;22.966;2022-10-04T08:42:23;94354.03;;;12.81;77.38
10079;BME280;5078;42.544;22.966;2022-10-04T08:45:22;94354.75;;;12.98;76.67
10079;BME280;5078;42.544;22.966;2022-10-04T08:51:28;94362.13;;;13.34;71.22
10079;BME280;5078;42.544;22.966;2022-10-04T08:54:59;94359.44;;;12.96;71.90
10079;BME280;5078;42.544;22.966;2022-10-04T08:57:48;94345.44;;;13.17;74.00
10079;BME280;5078;42.544;22.966;2022-10-04T09:00:29;94346.06;;;14.46;69.51
10079;BME280;5078;42.544;22.966;2022-10-04T09:09:39;94349.41;;;14.33;65.59
10079;BME280;5078;42.544;22.966;2022-10-04T09:15:20;94349.06;;;13.77;67.43
10079;BME280;5078;42.544;22.966;2022-10-04T09:18:01;94354.75;;;14.03;65.90
10079;BME280;5078;42.544;22.966;2022-10-04T09:20:42;94342.34;;;13.96;64.62
10079;BME280;5078;42.544;22.966;2022-10-04T09:23:34;94349.25;;;13.61;65.39
10079;BME280;5078;42.544;22.966;2022-10-04T09:26:19;94360.63;;;13.69;64.90
10079;BME280;5078;42.544;22.966;2022-10-04T09:29:09;94357.41;;;13.59;66.44
10079;BME280;5078;42.544;22.966;2022-10-04T09:34:52;94354.09;;;13.72;65.74
10079;BME280;5078;42.544;22.966;2022-10-04T09:37:40;94351.53;;;14.08;65.01
10079;BME280;5078;42.544;22.966;2022-10-04T09:43:48;94342.53;;;15.46;58.69
10079;BME280;5078;42.544;22.966;2022-10-04T09:46:45;94328.13;;;16.45;54.39
10079;BME280;5078;42.544;22.966;2022-10-04T09:49:29;94338.38;;;16.96;52.51
10079;BME280;5078;42.544;22.966;2022-10-04T09:52:12;94329.13;;;17.06;50.20
10079;BME280;5078;42.544;22.966;2022-10-04T09:55:00;94323.28;;;16.75;49.99
10079;BME280;5078;42.544;22.966;2022-10-04T10:00:34;94323.91;;;16.29;51.39
10079;BME280;5078;42.544;22.966;2022-10-04T10:03:50;94310.22;;;15.98;52.41
10079;BME280;5078;42.544;22.966;2022-10-04T10:06:36;94310.69;;;16.14;52.03
10079;BME280;5078;42.544;22.966;2022-10-04T10:09:19;94314.78;;;16.10;50.50
10079;BME280;5078;42.544;22.966;2022-10-04T10:12:21;94310.22;;;16.04;51.62
10079;BME280;5078;42.544;22.966;2022-10-04T10:15:16;94318.69;;;16.08;52.13
10079;BME280;5078;42.544;22.966;2022-10-04T10:17:54;94322.09;;;15.10;55.34
10079;BME280;5078;42.544;22.966;2022-10-04T10:23:43;94315.06;;;15.87;54.55
10079;BME280;5078;42.544;22.966;2022-10-04T10:29:30;94320.06;;;17.00;50.18
10079;BME280;5078;42.544;22.966;2022-10-04T10:35:40;94304.88;;;16.04;50.68
10079;BME280;5078;42.544;22.966;2022-10-04T10:38:28;94306.69;;;16.38;49.87
10079;BME280;5078;42.544;22.966;2022-10-04T10:41:30;94302.50;;;16.29;50.08
10079;BME280;5078;42.544;22.966;2022-10-04T10:47:31;94313.63;;;15.07;53.95
10079;BME280;5078;42.544;22.966;2022-10-04T10:50:17;94326.31;;;14.98;53.83
10079;BME280;5078;42.544;22.966;2022-10-04T10:53:25;94341.22;;;14.71;55.21
10079;BME280;5078;42.544;22.966;2022-10-04T10:59:49;94328.25;;;15.32;52.22
10079;BME280;5078;42.544;22.966;2022-10-04T11:05:27;94328.78;;;15.49;53.14
10079;BME280;5078;42.544;22.966;2022-10-04T11:08:08;94328.25;;;15.61;51.92
10079;BME280;5078;42.544;22.966;2022-10-04T11:11:06;94320.41;;;15.59;51.60
10079;BME280;5078;42.544;22.966;2022-10-04T11:14:01;94329.75;;;15.42;51.77
10079;BME280;5078;42.544;22.966;2022-10-04T11:17:04;94341.38;;;15.06;53.32
10079;BME280;5078;42.544;22.966;2022-10-04T11:26:17;94346.63;;;14.41;53.98
10079;BME280;5078;42.544;22.966;2022-10-04T11:28:53;94334.88;;;14.72;54.44
10079;BME280;5078;42.544;22.966;2022-10-04T11:31:57;94338.81;;;14.76;54.24
10079;BME280;5078;42.544;22.966;2022-10-04T11:34:52;94344.53;;;14.73;53.89
10079;BME280;5078;42.544;22.966;2022-10-04T11:37:45;94328.84;;;14.63;54.34
10079;BME280;5078;42.544;22.966;2022-10-04T11:40:42;94345.28;;;14.52;55.41
10079;BME280;5078;42.544;22.966;2022-10-04T11:43:25;94353.00;;;14.26;57.83
10079;BME280;5078;42.544;22.966;2022-10-04T11:46:10;94348.22;;;13.91;58.91
10079;BME280;5078;42.544;22.966;2022-10-04T11:48:50;94347.03;;;14.09;59.43
10079;BME280;5078;42.544;22.966;2022-10-04T11:52:12;94355.00;;;14.38;57.94
10079;BME280;5078;42.544;22.966;2022-10-04T11:55:15;94348.91;;;14.44;57.34
10079;BME280;5078;42.544;22.966;2022-10-04T11:57:50;94352.22;;;14.46;56.02
10079;BME280;5078;42.544;22.966;2022-10-04T12:00:23;94349.88;;;14.73;55.18
10079;BME280;5078;42.544;22.966;2022-10-04T12:03:16;94350.47;;;14.54;54.25
10079;BME280;5078;42.544;22.966;2022-10-04T12:06:06;94352.41;;;14.30;52.89
10079;BME280;5078;42.544;22.966;2022-10-04T12:08:58;94352.38;;;14.45;53.38
10079;BME280;5078;42.544;22.966;2022-10-04T12:21:29;94337.91;;;14.69;51.93
10079;BME280;5078;42.544;22.966;2022-10-04T12:27:16;94343.41;;;15.04;52.30
10079;BME280;5078;42.544;22.966;2022-10-04T12:30:03;94346.25;;;15.02;53.08
10079;BME280;5078;42.544;22.966;2022-10-04T12:32:44;94350.91;;;14.94;53.84
10079;BME280;5078;42.544;22.966;2022-10-04T12:35:26;94349.75;;;14.81;54.33
10079;BME280;5078;42.544;22.966;2022-10-04T12:41:06;94346.31;;;14.87;53.20
10079;BME280;5078;42.544;22.966;2022-10-04T12:43:43;94347.84;;;15.18;54.56
10079;BME280;5078;42.544;22.966;2022-10-04T12:46:24;94340.16;;;14.87;53.85
10079;BME280;5078;42.544;22.966;2022-10-04T12:49:12;94344.19;;;14.98;53.72
10079;BME280;5078;42.544;22.966;2022-10-04T12:51:51;94344.66;;;14.86;53.48
10079;BME280;5078;42.544;22.966;2022-10-04T12:54:28;94347.97;;;14.52;53.48
10079;BME280;5078;42.544;22.966;2022-10-04T12:57:12;94346.22;;;14.44;54.52
10079;BME280;5078;42.544;22.966;2022-10-04T12:59:52;94337.44;;;14.29;54.21
10079;BME280;5078;42.544;22.966;2022-10-04T13:02:34;94338.88;;;14.46;54.17
10079;BME280;5078;42.544;22.966;2022-10-04T13:05:11;94347.06;;;14.45;54.26
10079;BME280;5078;42.544;22.966;2022-10-04T13:08:02;94355.69;;;14.47;54.37
10079;BME280;5078;42.544;22.966;2022-10-04T13:10:57;94349.81;;;14.52;55.37
10079;BME280;5078;42.544;22.966;2022-10-04T13:16:44;94358.59;;;14.31;55.89
10079;BME280;5078;42.544;22.966;2022-10-04T13:19:20;94355.56;;;14.19;56.68
10079;BME280;5078;42.544;22.966;2022-10-04T13:22:46;94361.00;;;14.26;57.25
10079;BME280;5078;42.544;22.966;2022-10-04T13:25:47;94354.94;;;14.02;57.08
10079;BME280;5078;42.544;22.966;2022-10-04T13:28:24;94355.41;;;14.06;57.96
10079;BME280;5078;42.544;22.966;2022-10-04T13:30:58;94355.66;;;14.26;56.69
10079;BME280;5078;42.544;22.966;2022-10-04T13:33:33;94365.59;;;14.02;56.79
10079;BME280;5078;42.544;22.966;2022-10-04T13:36:08;94361.66;;;14.13;58.31
10079;BME280;5078;42.544;22.966;2022-10-04T13:42:15;94368.81;;;13.97;57.50
10079;BME280;5078;42.544;22.966;2022-10-04T13:50:45;94375.53;;;13.93;56.94
10079;BME280;5078;42.544;22.966;2022-10-04T13:53:22;94338.50;;;13.84;56.74
10079;BME280;5078;42.544;22.966;2022-10-04T13:56:34;94377.72;;;13.90;57.53
10079;BME280;5078;42.544;22.966;2022-10-04T13:59:16;94358.34;;;13.81;57.02
10079;BME280;5078;42.544;22.966;2022-10-04T14:05:44;94380.88;;;14.08;57.67
10079;BME280;5078;42.544;22.966;2022-10-04T14:08:34;94381.41;;;14.18;57.00
10079;BME280;5078;42.544;22.966;2022-10-04T14:11:25;94377.19;;;14.09;56.77
10079;BME280;5078;42.544;22.966;2022-10-04T14:14:17;94374.34;;;13.81;57.36
10079;BME280;5078;42.544;22.966;2022-10-04T14:17:21;94383.03;;;13.75;57.72
10079;BME280;5078;42.544;22.966;2022-10-04T14:23:10;94380.63;;;13.50;57.58
10079;BME280;5078;42.544;22.966;2022-10-04T14:26:02;94383.94;;;13.52;58.52
10079;BME280;5078;42.544;22.966;2022-10-04T14:29:07;94384.16;;;13.66;58.33
10079;BME280;5078;42.544;22.966;2022-10-04T14:34:55;94397.13;;;13.69;56.77
10079;BME280;5078;42.544;22.966;2022-10-04T14:47:28;94410.81;;;13.20;58.77
10079;BME280;5078;42.544;22.966;2022-10-04T14:50:19;94404.66;;;13.19;60.41
10079;BME280;5078;42.544;22.966;2022-10-04T14:53:18;94411.88;;;12.87;61.47
10079;BME280;5078;42.544;22.966;2022-10-04T14:58:56;94411.84;;;13.19;61.01
10079;BME280;5078;42.544;22.966;2022-10-04T15:01:26;94406.88;;;13.15;61.27
10079;BME280;5078;42.544;22.966;2022-10-04T15:04:25;94418.22;;;13.09;59.81
10079;BME280;5078;42.544;22.966;2022-10-04T15:06:57;94413.19;;;13.14;60.03
10079;BME280;5078;42.544;22.966;2022-10-04T15:09:41;94411.47;;;13.22;59.70
10079;BME280;5078;42.544;22.966;2022-10-04T15:15:42;94420.66;;;12.96;60.52
10079;BME280;5078;42.544;22.966;2022-10-04T15:18:31;94426.13;;;13.17;60.14
10079;BME280;5078;42.544;22.966;2022-10-04T15:21:18;94427.09;;;13.02;60.53
10079;BME280;5078;42.544;22.966;2022-10-04T15:23:58;94427.09;;;13.02;60.71
10079;BME280;5078;42.544;22.966;2022-10-04T15:26:48;94427.25;;;13.00;61.29
10079;BME280;5078;42.544;22.966;2022-10-04T15:29:22;94429.09;;;13.23;62.07
10079;BME280;5078;42.544;22.966;2022-10-04T15:31:59;94434.31;;;13.16;62.47
10079;BME280;5078;42.544;22.966;2022-10-04T15:34:34;94427.91;;;13.33;62.11
10079;BME280;5078;42.544;22.966;2022-10-04T15:37:14;94435.38;;;13.07;62.36
10079;BME280;5078;42.544;22.966;2022-10-04T15:40:32;94433.28;;;12.94;63.88
10079;BME280;5078;42.544;22.966;2022-10-04T15:43:25;94443.81;;;12.87;64.69
10079;BME280;5078;42.544;22.966;2022-10-04T15:46:06;94448.16;;;12.80;67.09
10079;BME280;5078;42.544;22.966;2022-10-04T15:51:47;94455.59;;;12.62;68.44
10079;BME280;5078;42.544;22.966;2022-10-04T15:57:26;94459.00;;;12.39;70.84
10079;BME280;5078;42.544;22.966;2022-10-04T16:00:03;94462.03;;;12.28;72.65
10079;BME280;5078;42.544;22.966;2022-10-04T16:05:43;94464.91;;;12.18;74.28